Aérodrome :
LOGIN :

S'inscrire | Disclaimer

   EN    FR    IT 

 










Légende :    VFR   VFR Marginal   IFR   IFR Intensif   IFR Très Intensif
Visi : 
Plafond : 
>= 8 km
>= 3000ft
5 à 8 km
1000 à 3000 ft
1500m à 5 km
500 à 1000 ft
800 à 1500m
200 à 500 ft
< 800m
< 200 ft
Symboles :   Orages  Brouillard  Fortes neiges  Fortes précipitations  Vent > 20 kt
SIGMETs :   Divers  Orages  Givrage  Turbulence  Onde Orograph.  Cendres Volcan.







- Altitude de l'aérodrome : 157 ft
- Code IATA : LIL
- Voir les cartes d'approche


LFQQ - Lille Lesquin

DERNIER METAR :
  • 170730Z AUTO 26010KT 220V280 9999 FEW020 BKN078 OVC090 20/13 Q1016 NOSIG

METARs EXPIRÉS :
  • 170700Z AUTO 26007KT 210V300 9999 FEW017 BKN092 BKN110 20/15 Q1015 TEMPO BKN010
  • 170630Z AUTO 24008KT 9999 SCT012 BKN100 BKN120 19/16 Q1015 TEMPO BKN010
  • 170600Z AUTO 25006KT 220V280 9999 BKN010 BKN098 BKN120 18/15 Q1015 NOSIG
  • 170530Z AUTO 21003KT 170V250 9999 BKN010 OVC094 17/15 Q1015 BECMG 27013KT NSC
  • 170500Z AUTO VRB03KT 9000 FEW010 SCT096 BKN110 16/15 Q1015 TEMPO BKN008 BECMG 27013KT
  • 170430Z AUTO 18004KT 9000 FEW011 BKN100 BKN130 16/14 Q1014 TEMPO BKN008 BECMG 27013KT

TAF TAF LFQQ
Valide du 17 à 06h jusqu'au 18 à 12h UTC


170500Z 1706/1812 27008KT CAVOK
TEMPO 1706/1708 BKN010
ATIS : +33 3 20 16 19 54
Pas de NOTAMs connus pour ce terrain.



MET'MAP, la Météo Aéronautique d'un coup d'oeil ! - Copyright ORBIFLY Décembre 2007 - Disclaimer

ORBIFLY MET'MAP TEAM :

Programmation & Développement : Alexandra Zaïnal
Conception & Développement : Baudouin d'Aumeries
Co-Programmation & Développement : Marc-Olivier Méhu
Soutien technique & logistique : Manuel Goepfert

Contact : metmap@orbifly.com




SOURCES & CREDITS :

   NOAA